createdAt,value
2017-06-16T00:00:07.704Z,19.90
2017-06-16T00:02:35.272Z,19.80
2017-06-16T00:05:02.792Z,19.80
2017-06-16T00:07:30.339Z,19.90
2017-06-16T00:09:58.313Z,19.90
2017-06-16T00:12:25.820Z,20.00
2017-06-16T00:14:54.168Z,20.00
2017-06-16T00:17:21.736Z,19.90
2017-06-16T00:19:49.288Z,20.00
2017-06-16T00:22:16.826Z,20.00
2017-06-16T00:24:44.716Z,20.00
2017-06-16T00:27:12.273Z,20.00
2017-06-16T00:29:39.804Z,20.00
2017-06-16T00:32:07.379Z,20.00
2017-06-16T00:34:34.900Z,20.00
2017-06-16T00:37:02.430Z,20.00
2017-06-16T00:39:30.247Z,20.00
2017-06-16T00:41:57.795Z,20.00
2017-06-16T00:44:25.373Z,20.00
2017-06-16T00:46:52.964Z,20.10
2017-06-16T00:49:21.177Z,20.10
2017-06-16T00:51:48.714Z,20.10
2017-06-16T00:54:16.288Z,20.10
2017-06-16T00:56:43.821Z,20.20
2017-06-16T00:59:11.351Z,20.20
2017-06-16T01:01:38.925Z,20.20
2017-06-16T01:04:06.471Z,20.20
2017-06-16T01:06:34.004Z,20.20
2017-06-16T01:09:01.584Z,20.30
2017-06-16T01:11:29.116Z,20.30
2017-06-16T01:13:56.657Z,20.30
2017-06-16T01:16:24.228Z,20.30
2017-06-16T01:18:51.762Z,20.30
2017-06-16T01:21:19.281Z,20.30
2017-06-16T01:23:47.182Z,20.30
2017-06-16T01:26:14.709Z,20.30
2017-06-16T01:28:42.232Z,20.30
2017-06-16T01:31:09.856Z,20.30
2017-06-16T01:33:37.390Z,20.30
2017-06-16T01:36:04.937Z,20.30
2017-06-16T01:38:33.270Z,20.30
2017-06-16T01:41:00.792Z,20.30
2017-06-16T01:43:28.346Z,20.30
2017-06-16T01:45:56.253Z,20.30
2017-06-16T01:48:23.797Z,20.30
2017-06-16T01:50:51.333Z,20.30
2017-06-16T01:53:18.919Z,20.30
2017-06-16T01:55:46.448Z,20.30
2017-06-16T01:58:13.989Z,20.30
2017-06-16T02:00:41.561Z,20.30
2017-06-16T02:03:09.877Z,20.20
2017-06-16T02:05:37.413Z,20.20
2017-06-16T02:08:04.991Z,20.20
2017-06-16T02:10:32.544Z,20.20
2017-06-16T02:13:00.076Z,20.20
2017-06-16T02:15:27.662Z,20.20
2017-06-16T02:17:55.201Z,20.30
2017-06-16T02:20:23.517Z,20.30
2017-06-16T02:22:51.105Z,20.20
2017-06-16T02:25:18.643Z,20.20
2017-06-16T02:27:46.188Z,20.20
2017-06-16T02:30:13.776Z,20.20
2017-06-16T02:32:41.347Z,20.20
2017-06-16T02:35:08.983Z,20.20
2017-06-16T02:37:36.555Z,20.10
2017-06-16T02:40:04.080Z,20.10
2017-06-16T02:42:31.629Z,20.10
2017-06-16T02:44:59.548Z,20.00
2017-06-16T02:47:27.084Z,20.00
2017-06-16T02:49:54.640Z,19.90
2017-06-16T02:52:22.225Z,19.90
2017-06-16T02:54:49.904Z,19.90
2017-06-16T02:57:17.428Z,19.90
2017-06-16T02:59:45.004Z,19.90
2017-06-16T03:02:12.540Z,20.00
2017-06-16T03:04:40.075Z,20.00
2017-06-16T03:07:07.913Z,20.00
2017-06-16T03:09:35.489Z,20.10
2017-06-16T03:12:03.014Z,20.10
2017-06-16T03:14:30.616Z,20.10
2017-06-16T03:16:58.154Z,20.10
2017-06-16T03:19:25.692Z,20.10
2017-06-16T03:21:53.292Z,20.00
2017-06-16T03:24:26.593Z,20.00
2017-06-16T03:26:54.172Z,20.00
2017-06-16T03:29:22.488Z,20.10
2017-06-16T03:31:50.016Z,20.10
2017-06-16T03:34:18.387Z,20.10
2017-06-16T03:36:45.925Z,20.10
2017-06-16T03:39:13.461Z,20.20
2017-06-16T03:41:41.331Z,20.20
2017-06-16T03:44:08.862Z,20.20
2017-06-16T03:46:36.416Z,20.20
2017-06-16T03:49:04.030Z,20.20
2017-06-16T03:51:31.568Z,20.20
2017-06-16T03:53:59.119Z,20.20
2017-06-16T03:56:26.691Z,20.30
2017-06-16T03:58:54.227Z,20.30
2017-06-16T04:01:21.755Z,20.30
2017-06-16T04:03:49.332Z,20.40
2017-06-16T04:06:16.875Z,20.40
2017-06-16T04:08:45.179Z,20.50
2017-06-16T04:11:12.743Z,20.50
2017-06-16T04:13:40.296Z,20.60
2017-06-16T04:16:07.821Z,20.70
2017-06-16T04:18:35.420Z,20.70
2017-06-16T04:21:02.974Z,20.80
2017-06-16T04:23:30.504Z,20.90
2017-06-16T04:25:58.078Z,20.90
2017-06-16T04:28:25.617Z,20.90
2017-06-16T04:30:53.193Z,21.00
2017-06-16T04:33:20.783Z,21.00
2017-06-16T04:35:48.328Z,21.00
2017-06-16T04:38:15.867Z,21.00
2017-06-16T04:40:43.454Z,21.00
2017-06-16T04:43:10.985Z,21.10
2017-06-16T04:45:38.512Z,21.20
2017-06-16T04:48:06.086Z,21.20
2017-06-16T04:50:33.641Z,21.30
2017-06-16T04:53:01.194Z,21.30
2017-06-16T04:55:28.770Z,21.30
2017-06-16T04:57:56.292Z,21.30
2017-06-16T05:00:23.824Z,21.30
2017-06-16T05:02:51.403Z,21.30
2017-06-16T05:05:19.828Z,21.40
2017-06-16T05:07:47.368Z,21.40
2017-06-16T05:10:14.965Z,21.40
2017-06-16T05:12:42.502Z,21.40
2017-06-16T05:15:10.049Z,21.40
2017-06-16T05:17:37.627Z,21.40
2017-06-16T05:20:05.171Z,21.40
2017-06-16T05:22:38.470Z,21.30
2017-06-16T05:25:06.032Z,21.20
2017-06-16T05:27:34.186Z,21.20
2017-06-16T05:30:01.762Z,21.20
2017-06-16T05:32:29.318Z,21.10
2017-06-16T05:34:56.864Z,21.20
2017-06-16T05:37:24.449Z,21.20
2017-06-16T05:39:51.980Z,21.30
2017-06-16T05:42:19.535Z,21.30
2017-06-16T05:44:47.113Z,21.40
2017-06-16T05:47:14.669Z,21.50
2017-06-16T05:49:42.214Z,21.60
2017-06-16T05:52:09.816Z,21.70
2017-06-16T05:54:37.332Z,21.80
2017-06-16T05:57:04.873Z,21.90
2017-06-16T05:59:33.222Z,22.00
2017-06-16T06:02:00.761Z,22.00
2017-06-16T06:04:28.320Z,22.10
2017-06-16T06:06:55.918Z,22.10
2017-06-16T06:09:24.232Z,22.10
2017-06-16T06:11:51.792Z,22.10
2017-06-16T06:14:19.383Z,22.10
2017-06-16T06:16:46.916Z,22.10
2017-06-16T06:19:14.439Z,22.10
2017-06-16T06:21:42.418Z,22.00
2017-06-16T06:24:10.748Z,22.00
2017-06-16T06:26:38.275Z,22.00
2017-06-16T06:29:05.853Z,21.90
2017-06-16T06:31:33.419Z,21.90
2017-06-16T06:34:00.980Z,21.90
2017-06-16T06:36:28.981Z,21.90
2017-06-16T06:38:57.224Z,22.00
2017-06-16T06:41:24.754Z,22.00
2017-06-16T06:43:52.628Z,22.10
2017-06-16T06:46:20.939Z,22.10
2017-06-16T06:48:48.485Z,22.10
2017-06-16T06:51:16.092Z,22.10
2017-06-16T06:53:43.614Z,22.00
2017-06-16T06:56:11.145Z,22.00
2017-06-16T06:58:39.499Z,22.10
2017-06-16T07:01:07.025Z,22.00
2017-06-16T07:03:34.560Z,22.10
2017-06-16T07:06:02.120Z,22.20
2017-06-16T07:08:29.670Z,22.30
2017-06-16T07:10:57.213Z,22.50
2017-06-16T07:13:24.789Z,22.70
2017-06-16T07:15:53.085Z,22.70
2017-06-16T07:18:20.617Z,22.70
2017-06-16T07:20:48.210Z,22.70
2017-06-16T07:23:15.746Z,22.70
2017-06-16T07:25:43.319Z,22.60
2017-06-16T07:28:10.894Z,22.50
2017-06-16T07:30:38.430Z,22.50
2017-06-16T07:33:05.961Z,22.50
2017-06-16T07:35:33.539Z,22.60
2017-06-16T07:38:01.834Z,22.80
2017-06-16T07:40:29.388Z,22.80
2017-06-16T07:42:57.737Z,23.00
2017-06-16T07:45:25.270Z,23.00
2017-06-16T07:47:52.819Z,23.10
2017-06-16T07:50:20.650Z,23.10
2017-06-16T07:52:48.206Z,23.10
2017-06-16T07:55:15.778Z,23.20
2017-06-16T07:57:43.397Z,23.30
2017-06-16T08:00:10.921Z,23.40
2017-06-16T08:02:38.448Z,23.50
2017-06-16T08:05:06.009Z,23.50
2017-06-16T08:07:33.537Z,23.60
2017-06-16T08:10:01.068Z,23.70
2017-06-16T08:12:28.653Z,23.70
2017-06-16T08:14:56.172Z,23.80
2017-06-16T08:17:23.687Z,23.80
2017-06-16T08:19:51.260Z,23.80
2017-06-16T08:22:18.825Z,23.90
2017-06-16T08:24:46.441Z,24.00
2017-06-16T08:27:14.076Z,24.00
2017-06-16T08:29:41.645Z,24.10
2017-06-16T08:32:09.173Z,24.20
2017-06-16T08:34:37.516Z,24.50
2017-06-16T08:37:05.049Z,24.40
2017-06-16T08:39:32.595Z,24.60
2017-06-16T08:42:00.174Z,24.70
2017-06-16T08:44:27.704Z,24.90
2017-06-16T08:46:55.249Z,24.90
2017-06-16T08:49:22.830Z,24.90
2017-06-16T08:51:50.354Z,24.90
2017-06-16T08:54:17.906Z,24.80
2017-06-16T08:56:45.488Z,24.80
2017-06-16T08:59:13.036Z,24.80
2017-06-16T09:01:40.561Z,24.80
2017-06-16T09:04:08.144Z,24.60
2017-06-16T09:06:35.672Z,24.40
2017-06-16T09:09:03.225Z,23.80
2017-06-16T09:11:30.811Z,22.80
2017-06-16T09:13:58.348Z,21.50
2017-06-16T09:16:25.907Z,20.50
2017-06-16T09:18:55.358Z,19.70
2017-06-16T09:21:22.891Z,19.20
2017-06-16T09:23:50.425Z,18.80
2017-06-16T09:26:17.989Z,18.40
2017-06-16T09:28:45.523Z,18.20
2017-06-16T09:31:13.058Z,18.10
2017-06-16T09:33:40.644Z,17.90
2017-06-16T09:36:08.186Z,17.80
2017-06-16T09:38:35.720Z,17.80
2017-06-16T09:41:03.312Z,17.80
2017-06-16T09:43:30.863Z,17.90
2017-06-16T09:45:58.414Z,18.20
2017-06-16T09:48:26.261Z,18.30
2017-06-16T09:50:53.793Z,18.40
2017-06-16T09:53:21.318Z,18.40
2017-06-16T09:55:48.895Z,18.50
2017-06-16T09:58:16.462Z,18.50
2017-06-16T10:00:44.763Z,18.80
2017-06-16T10:03:12.365Z,18.80
2017-06-16T10:05:40.690Z,19.20
2017-06-16T10:08:08.234Z,19.20
2017-06-16T10:10:36.586Z,19.90
2017-06-16T10:13:04.111Z,19.90
2017-06-16T10:15:31.633Z,20.20
2017-06-16T10:17:59.977Z,20.60
2017-06-16T10:20:27.516Z,20.50
2017-06-16T10:22:55.053Z,20.60
2017-06-16T10:25:22.612Z,20.60
2017-06-16T10:27:50.143Z,20.60
2017-06-16T10:30:17.701Z,20.60
2017-06-16T10:32:46.078Z,20.90
2017-06-16T10:35:13.638Z,20.90
2017-06-16T10:37:41.169Z,21.10
2017-06-16T10:40:08.744Z,21.20
2017-06-16T10:42:36.276Z,21.40
2017-06-16T10:45:03.806Z,21.60
2017-06-16T10:47:31.386Z,21.80
2017-06-16T10:49:58.909Z,22.10
2017-06-16T10:52:27.197Z,22.60
2017-06-16T10:54:55.528Z,22.80
2017-06-16T10:57:23.062Z,22.70
2017-06-16T10:59:50.586Z,22.90
2017-06-16T11:02:18.169Z,23.00
2017-06-16T11:04:45.700Z,23.20
2017-06-16T11:07:13.235Z,23.30
2017-06-16T11:09:40.819Z,23.40
2017-06-16T11:12:08.360Z,23.50
2017-06-16T11:14:35.900Z,23.60
2017-06-16T11:17:03.495Z,23.70
2017-06-16T11:19:31.015Z,23.60
2017-06-16T11:21:58.577Z,23.40
2017-06-16T11:24:26.183Z,23.20
2017-06-16T11:26:53.720Z,23.00
2017-06-16T11:29:21.241Z,22.90
2017-06-16T11:31:48.833Z,22.90
2017-06-16T11:34:16.360Z,22.90
2017-06-16T11:36:43.890Z,22.90
2017-06-16T11:39:11.469Z,23.00
2017-06-16T11:41:38.984Z,23.10
2017-06-16T11:44:06.506Z,23.40
2017-06-16T11:46:34.069Z,23.50
2017-06-16T11:49:01.630Z,23.40
2017-06-16T11:51:29.160Z,23.10
2017-06-16T11:53:56.738Z,22.90
2017-06-16T11:56:24.288Z,22.60
2017-06-16T11:58:51.820Z,22.30
2017-06-16T12:01:19.388Z,22.10
2017-06-16T12:03:46.904Z,21.80
2017-06-16T12:06:14.435Z,21.60
2017-06-16T12:08:42.003Z,21.40
2017-06-16T12:11:09.517Z,21.30
2017-06-16T12:13:37.053Z,21.30
2017-06-16T12:16:04.629Z,21.20
2017-06-16T12:18:32.156Z,21.10
2017-06-16T12:20:59.691Z,21.10
2017-06-16T12:23:27.282Z,21.10
2017-06-16T12:25:54.818Z,21.40
2017-06-16T12:28:22.341Z,21.80
2017-06-16T12:30:49.917Z,22.50
2017-06-16T12:33:17.453Z,23.50
2017-06-16T12:35:44.973Z,24.40
2017-06-16T12:38:12.687Z,25.50
2017-06-16T12:40:40.994Z,28.00
2017-06-16T12:43:08.525Z,27.80
2017-06-16T12:45:36.093Z,28.60
2017-06-16T12:48:03.620Z,29.30
2017-06-16T12:50:31.165Z,29.90
2017-06-16T12:52:58.739Z,30.50
2017-06-16T12:55:26.273Z,31.20
2017-06-16T12:57:53.792Z,31.80
2017-06-16T13:00:21.355Z,32.20
2017-06-16T13:02:48.886Z,32.70
2017-06-16T13:05:16.407Z,33.00
2017-06-16T13:07:44.013Z,33.50
2017-06-16T13:10:11.535Z,33.30
2017-06-16T13:12:39.062Z,33.10
2017-06-16T13:15:06.670Z,32.50
2017-06-16T13:17:34.207Z,31.70
2017-06-16T13:20:01.738Z,30.70
2017-06-16T13:22:29.300Z,29.70
2017-06-16T13:24:56.849Z,28.80
2017-06-16T13:27:24.410Z,28.20
2017-06-16T13:29:52.011Z,27.70
2017-06-16T13:32:19.540Z,27.30
2017-06-16T13:34:47.092Z,27.00
2017-06-16T13:37:14.957Z,26.60
2017-06-16T13:39:42.484Z,26.30
2017-06-16T13:42:10.020Z,26.20
2017-06-16T13:44:37.606Z,26.10
2017-06-16T13:47:05.135Z,26.00
2017-06-16T13:49:32.659Z,25.80
2017-06-16T13:52:00.271Z,25.60
2017-06-16T13:54:27.799Z,25.30
2017-06-16T13:56:55.336Z,25.10
2017-06-16T13:59:22.905Z,24.90
2017-06-16T14:01:50.440Z,24.70
2017-06-16T14:04:17.969Z,24.60
2017-06-16T14:06:45.555Z,24.50
2017-06-16T14:09:13.112Z,24.50
2017-06-16T14:11:41.536Z,24.40
2017-06-16T14:14:09.889Z,24.60
2017-06-16T14:16:37.437Z,24.50
2017-06-16T14:19:06.408Z,24.50
2017-06-16T14:21:33.987Z,24.40
2017-06-16T14:24:01.540Z,24.30
2017-06-16T14:26:29.073Z,24.10
2017-06-16T14:28:56.674Z,24.00
2017-06-16T14:31:24.214Z,23.90
2017-06-16T14:33:51.762Z,23.80
2017-06-16T14:36:19.759Z,23.80
2017-06-16T14:38:47.941Z,23.80
2017-06-16T14:41:15.577Z,23.90
2017-06-16T14:43:43.184Z,24.00
2017-06-16T14:46:10.734Z,24.20
2017-06-16T14:48:38.504Z,24.40
2017-06-16T14:51:06.084Z,24.40
2017-06-16T14:53:33.603Z,24.40
2017-06-16T14:56:01.142Z,24.50
2017-06-16T14:58:28.728Z,24.80
2017-06-16T15:00:57.121Z,25.00
2017-06-16T15:03:27.488Z,25.10
2017-06-16T15:08:29.106Z,25.40
2017-06-16T15:10:57.950Z,25.50
2017-06-16T15:13:25.628Z,25.80
2017-06-16T15:15:57.970Z,26.30
2017-06-16T15:18:26.306Z,26.80
2017-06-16T15:20:57.310Z,26.80
2017-06-16T15:23:32.514Z,27.10
2017-06-16T15:26:19.006Z,26.80
2017-06-16T15:28:51.898Z,26.80
2017-06-16T15:31:21.913Z,27.00
2017-06-16T15:33:58.448Z,27.10
2017-06-16T15:36:33.646Z,27.20
2017-06-16T15:39:03.220Z,26.90
2017-06-16T15:41:31.163Z,26.80
2017-06-16T15:44:00.982Z,26.60
2017-06-16T15:46:28.943Z,26.20
2017-06-16T15:48:57.538Z,25.50
2017-06-16T15:51:25.073Z,25.50
2017-06-16T15:53:53.246Z,25.20
2017-06-16T15:56:21.576Z,24.60
2017-06-16T15:58:52.236Z,24.60
2017-06-16T16:01:21.618Z,24.30
2017-06-16T16:03:50.585Z,23.80
2017-06-16T16:06:19.866Z,22.80
2017-06-16T16:08:50.550Z,20.50
2017-06-16T16:37:16.226Z,18.10
2017-06-16T16:39:45.506Z,18.10
2017-06-16T16:42:13.644Z,18.20
2017-06-16T16:44:41.230Z,18.30
2017-06-16T16:47:09.809Z,18.30
2017-06-16T16:49:37.443Z,18.40
2017-06-16T16:52:05.117Z,18.40
2017-06-16T16:54:32.786Z,18.50
2017-06-16T16:57:01.121Z,18.60
2017-06-16T16:59:28.829Z,18.50
2017-06-16T17:01:57.819Z,18.70
2017-06-16T17:04:25.433Z,18.70
2017-06-16T17:06:53.117Z,18.80
2017-06-16T17:09:23.634Z,18.80
2017-06-16T17:11:57.342Z,18.90
2017-06-16T17:14:26.310Z,18.90
2017-06-16T17:16:53.858Z,19.00
2017-06-16T17:19:29.545Z,19.00
2017-06-16T17:21:57.846Z,19.00
2017-06-16T17:24:27.177Z,19.00
2017-06-16T17:26:56.990Z,19.10
2017-06-16T17:29:24.684Z,19.10
2017-06-16T17:31:52.288Z,19.00
2017-06-16T17:34:21.511Z,19.00
2017-06-16T17:36:49.340Z,19.00
2017-06-16T17:39:20.440Z,18.90
2017-06-16T17:41:48.255Z,18.90
2017-06-16T17:44:16.584Z,18.70
2017-06-16T17:52:39.483Z,18.70
2017-06-16T17:55:07.045Z,18.60
2017-06-16T17:57:34.600Z,18.60
2017-06-16T18:00:02.237Z,18.60
2017-06-16T18:02:31.123Z,18.70
2017-06-16T18:04:59.459Z,18.80
2017-06-16T18:07:27.049Z,18.80
2017-06-16T18:09:54.574Z,19.00
2017-06-16T18:12:22.146Z,19.00
2017-06-16T18:14:49.762Z,19.20
2017-06-16T18:17:18.076Z,19.20
2017-06-16T18:19:45.625Z,19.20
2017-06-16T18:22:13.207Z,19.20
2017-06-16T18:24:40.750Z,19.20
2017-06-16T18:27:08.309Z,19.20
2017-06-16T18:29:35.898Z,19.10
2017-06-16T18:32:03.461Z,19.10
2017-06-16T18:34:31.006Z,19.00
2017-06-16T18:36:58.617Z,19.00
2017-06-16T18:39:26.177Z,19.00
2017-06-16T18:41:53.741Z,19.00
2017-06-16T18:44:21.344Z,19.00
2017-06-16T18:46:49.279Z,18.90
2017-06-16T18:49:16.836Z,18.90
2017-06-16T18:51:44.423Z,18.90
2017-06-16T18:54:11.990Z,18.90
2017-06-16T18:56:39.549Z,18.80
2017-06-16T18:59:08.055Z,18.80
2017-06-16T19:01:35.610Z,18.80
2017-06-16T19:04:03.157Z,18.80
2017-06-16T19:06:30.767Z,18.70
2017-06-16T19:08:58.387Z,18.60
2017-06-16T19:11:25.927Z,18.60
2017-06-16T19:13:53.526Z,18.40
2017-06-16T19:16:21.076Z,18.30
2017-06-16T19:18:48.630Z,18.20
2017-06-16T19:21:16.224Z,18.20
2017-06-16T19:23:43.777Z,18.10
2017-06-16T19:26:11.347Z,18.00
2017-06-16T19:28:38.998Z,18.00
2017-06-16T19:31:06.532Z,18.00
2017-06-16T19:33:34.134Z,17.90
2017-06-16T19:36:01.743Z,17.90
2017-06-16T19:38:29.298Z,17.90
2017-06-16T19:40:56.860Z,17.80
2017-06-16T19:43:24.439Z,17.80
2017-06-16T19:45:51.983Z,17.70
2017-06-16T19:48:20.632Z,17.60
2017-06-16T19:50:49.022Z,17.50
2017-06-16T19:53:17.364Z,17.50
2017-06-16T19:55:44.955Z,17.50
2017-06-16T19:58:13.325Z,17.40
2017-06-16T20:00:40.897Z,17.40
2017-06-16T20:03:09.202Z,17.30
2017-06-16T20:05:36.794Z,17.40
2017-06-16T20:08:04.337Z,17.30
2017-06-16T20:10:31.885Z,17.30
2017-06-16T20:12:59.535Z,17.30
2017-06-16T20:15:27.166Z,17.30
2017-06-16T20:17:54.701Z,17.20
2017-06-16T20:20:22.296Z,17.20
2017-06-16T20:22:49.824Z,17.20
2017-06-16T20:25:17.399Z,17.20
2017-06-16T20:27:45.017Z,17.10
2017-06-16T20:30:12.580Z,17.10
2017-06-16T20:32:40.107Z,17.10
2017-06-16T20:35:08.456Z,17.10
2017-06-16T20:37:36.008Z,17.10
2017-06-16T20:40:03.565Z,17.10
2017-06-16T20:42:31.152Z,17.10
2017-06-16T20:44:58.707Z,17.00
2017-06-16T20:47:26.252Z,17.00
2017-06-16T20:49:53.830Z,17.00
2017-06-16T20:52:21.353Z,17.00
2017-06-16T20:54:48.874Z,16.90
2017-06-16T20:57:16.479Z,16.90
2017-06-16T20:59:44.027Z,16.90
2017-06-16T21:02:11.566Z,16.90
2017-06-16T21:04:39.150Z,16.90
2017-06-16T21:07:06.682Z,16.90
2017-06-16T21:09:34.998Z,16.90
2017-06-16T21:12:02.590Z,16.80
2017-06-16T21:14:30.130Z,16.90
2017-06-16T21:16:57.683Z,16.90
2017-06-16T21:19:25.264Z,16.90
2017-06-16T21:21:58.456Z,16.90
2017-06-16T21:24:26.045Z,16.90
2017-06-16T21:26:53.622Z,16.90
2017-06-16T21:29:22.013Z,16.90
2017-06-16T21:31:49.590Z,16.80
2017-06-16T21:34:17.122Z,16.80
2017-06-16T21:36:44.662Z,16.80
2017-06-16T21:39:13.013Z,16.70
2017-06-16T21:41:40.560Z,16.60
2017-06-16T21:44:08.106Z,16.60
2017-06-16T21:46:35.676Z,16.60
2017-06-16T21:49:03.233Z,16.60
2017-06-16T21:51:30.782Z,16.50
2017-06-16T21:53:58.359Z,16.50
2017-06-16T21:56:26.016Z,16.50
2017-06-16T21:58:53.541Z,16.50
2017-06-16T22:01:21.122Z,16.50
2017-06-16T22:03:48.661Z,16.40
2017-06-16T22:06:16.950Z,16.40
2017-06-16T22:08:44.529Z,16.40
2017-06-16T22:11:12.082Z,16.40
2017-06-16T22:13:39.602Z,16.40
2017-06-16T22:16:07.201Z,16.40
2017-06-16T22:18:34.743Z,16.30
2017-06-16T22:21:03.032Z,16.30
2017-06-16T22:23:30.610Z,16.20
2017-06-16T22:25:58.147Z,16.30
2017-06-16T22:28:25.698Z,16.20
2017-06-16T22:30:54.044Z,16.20
2017-06-16T22:33:21.568Z,16.20
2017-06-16T22:35:49.080Z,16.10
2017-06-16T22:38:16.663Z,16.10
2017-06-16T22:40:44.202Z,16.10
2017-06-16T22:43:11.740Z,16.00
2017-06-16T22:45:39.314Z,16.00
2017-06-16T22:48:06.858Z,16.00
2017-06-16T22:50:34.382Z,16.00
2017-06-16T22:53:01.965Z,16.00
2017-06-16T22:55:29.522Z,15.90
2017-06-16T22:57:57.101Z,15.90
2017-06-16T23:00:24.664Z,15.90
2017-06-16T23:02:52.191Z,15.90
2017-06-16T23:05:19.722Z,15.90
2017-06-16T23:07:48.067Z,15.80
2017-06-16T23:10:15.624Z,15.80
2017-06-16T23:12:43.154Z,15.80
2017-06-16T23:15:10.749Z,15.80
2017-06-16T23:17:38.275Z,15.80
2017-06-16T23:20:05.808Z,15.80
2017-06-16T23:22:33.397Z,15.80
2017-06-16T23:25:00.917Z,15.80
2017-06-16T23:27:28.442Z,15.70
2017-06-16T23:29:56.009Z,15.70
2017-06-16T23:32:23.537Z,15.70
2017-06-16T23:34:51.078Z,15.70
2017-06-16T23:37:18.649Z,15.70
2017-06-16T23:39:46.175Z,15.70
2017-06-16T23:42:14.461Z,15.70
2017-06-16T23:44:42.065Z,15.70
2017-06-16T23:47:09.580Z,15.80
2017-06-16T23:49:37.876Z,15.80
2017-06-16T23:52:05.467Z,15.60
2017-06-16T23:54:33.017Z,15.90
2017-06-16T23:57:00.554Z,15.90
2017-06-16T23:59:28.156Z,15.90
